Pant, United Kingdom
Current Conditions -  °F | °C
As of 1:50 PM on Saturday 20 Dec 2014 (Local Time) from EGOS Reporting Station
Broken Clouds Broken Clouds  
Wind Chill:   Ceiling: 4100
Heat Index:   Visibility: 6mi
Dew Point:   Wind: 12mph
Humidity: 66%   Direction: 270°W
Pressure: 30.3"   Gusts: NA
Location:  52.78°N, 3.07°W
Report Text: EGOS 201350Z AUTO 27010KT 9999 BKN041/// 09/03 Q1026
Loading
Personal Weather Stations






























Interactive Weather Map New forecast layout! Learn more

10-Day Weather Forecast

Advertisements
Track Severe Weather on mobile